Terminal Aerodrome Forecast
Issued by NWS

Home | Current Version | Previous Version | Text Only | Print | Product List | Glossary On
Versions: 1 2 3 4 5 6 7 8 9 10 11 12
000
FTUS42 TJSJ 270533
TAFJBQ
TAF
TJBQ 270533Z 2706/2806 10009KT P6SM FEW025 SCT060
     FM271400 08013KT P6SM FEW030
     FM272330 10010KT P6SM FEW060
      AMD NOT SKED TIL 271100=

USA.gov is the U.S. government's official web portal to all federal, state and local government web resources and services.